sensor_id;sensor_type;location;lat;lon;timestamp;P1;durP1;ratioP1;P2;durP2;ratioP2
51810;SDS011;52468;40.116;18.296;2023-04-06T00:02:02;9.07;;;5.70;;
51810;SDS011;52468;40.116;18.296;2023-04-06T00:04:30;7.83;;;4.40;;
51810;SDS011;52468;40.116;18.296;2023-04-06T00:06:58;7.43;;;5.30;;
51810;SDS011;52468;40.116;18.296;2023-04-06T00:09:26;7.53;;;4.17;;
51810;SDS011;52468;40.116;18.296;2023-04-06T00:11:53;7.47;;;3.97;;
51810;SDS011;52468;40.116;18.296;2023-04-06T00:14:22;12.00;;;5.00;;
51810;SDS011;52468;40.116;18.296;2023-04-06T00:16:50;6.53;;;3.87;;
51810;SDS011;52468;40.116;18.296;2023-04-06T00:19:18;8.10;;;5.10;;
51810;SDS011;52468;40.116;18.296;2023-04-06T00:21:46;12.23;;;6.13;;
51810;SDS011;52468;40.116;18.296;2023-04-06T00:24:13;8.60;;;6.13;;
51810;SDS011;52468;40.116;18.296;2023-04-06T00:26:41;8.50;;;4.73;;
51810;SDS011;52468;40.116;18.296;2023-04-06T00:29:09;6.73;;;4.63;;
51810;SDS011;52468;40.116;18.296;2023-04-06T00:31:39;11.47;;;4.57;;
51810;SDS011;52468;40.116;18.296;2023-04-06T00:34:07;8.63;;;4.80;;
51810;SDS011;52468;40.116;18.296;2023-04-06T00:36:35;6.13;;;3.90;;
51810;SDS011;52468;40.116;18.296;2023-04-06T00:39:03;5.30;;;3.93;;
51810;SDS011;52468;40.116;18.296;2023-04-06T00:41:32;7.57;;;3.97;;
51810;SDS011;52468;40.116;18.296;2023-04-06T00:44:00;4.30;;;3.10;;
51810;SDS011;52468;40.116;18.296;2023-04-06T00:46:28;5.00;;;3.63;;
51810;SDS011;52468;40.116;18.296;2023-04-06T00:48:56;4.93;;;3.17;;
51810;SDS011;52468;40.116;18.296;2023-04-06T00:51:24;6.80;;;3.23;;
51810;SDS011;52468;40.116;18.296;2023-04-06T00:53:52;6.97;;;2.90;;
51810;SDS011;52468;40.116;18.296;2023-04-06T00:56:21;4.93;;;3.83;;
51810;SDS011;52468;40.116;18.296;2023-04-06T00:58:52;5.50;;;3.93;;
51810;SDS011;52468;40.116;18.296;2023-04-06T01:01:20;5.77;;;3.60;;
51810;SDS011;52468;40.116;18.296;2023-04-06T01:03:51;5.93;;;3.63;;
51810;SDS011;52468;40.116;18.296;2023-04-06T01:06:20;7.17;;;4.00;;
51810;SDS011;52468;40.116;18.296;2023-04-06T01:08:57;5.90;;;3.60;;
51810;SDS011;52468;40.116;18.296;2023-04-06T01:11:26;6.97;;;3.37;;
51810;SDS011;52468;40.116;18.296;2023-04-06T01:13:54;4.17;;;3.03;;
51810;SDS011;52468;40.116;18.296;2023-04-06T01:19:08;4.83;;;3.27;;
51810;SDS011;52468;40.116;18.296;2023-04-06T01:21:40;5.70;;;3.23;;
51810;SDS011;52468;40.116;18.296;2023-04-06T01:24:20;4.90;;;3.30;;
51810;SDS011;52468;40.116;18.296;2023-04-06T01:27:06;5.47;;;3.37;;
51810;SDS011;52468;40.116;18.296;2023-04-06T01:30:03;3.80;;;2.97;;
51810;SDS011;52468;40.116;18.296;2023-04-06T01:33:03;5.33;;;3.67;;
51810;SDS011;52468;40.116;18.296;2023-04-06T01:35:56;6.23;;;3.77;;
51810;SDS011;52468;40.116;18.296;2023-04-06T01:38:25;7.63;;;3.47;;
51810;SDS011;52468;40.116;18.296;2023-04-06T01:40:53;5.20;;;3.27;;
51810;SDS011;52468;40.116;18.296;2023-04-06T01:43:24;6.23;;;3.70;;
51810;SDS011;52468;40.116;18.296;2023-04-06T01:46:07;3.78;;;3.33;;
51810;SDS011;52468;40.116;18.296;2023-04-06T01:48:39;5.10;;;3.27;;
51810;SDS011;52468;40.116;18.296;2023-04-06T01:51:30;4.57;;;3.17;;
51810;SDS011;52468;40.116;18.296;2023-04-06T01:54:01;6.53;;;4.77;;
51810;SDS011;52468;40.116;18.296;2023-04-06T01:56:52;6.30;;;3.70;;
51810;SDS011;52468;40.116;18.296;2023-04-06T01:59:43;5.53;;;2.93;;
51810;SDS011;52468;40.116;18.296;2023-04-06T02:02:19;6.33;;;3.90;;
51810;SDS011;52468;40.116;18.296;2023-04-06T02:04:57;7.30;;;4.30;;
51810;SDS011;52468;40.116;18.296;2023-04-06T02:07:25;8.13;;;4.50;;
51810;SDS011;52468;40.116;18.296;2023-04-06T02:09:55;7.70;;;4.77;;
51810;SDS011;52468;40.116;18.296;2023-04-06T02:12:32;7.73;;;4.50;;
51810;SDS011;52468;40.116;18.296;2023-04-06T02:15:00;10.03;;;4.97;;
51810;SDS011;52468;40.116;18.296;2023-04-06T02:17:28;7.57;;;4.03;;
51810;SDS011;52468;40.116;18.296;2023-04-06T02:19:56;7.30;;;4.43;;
51810;SDS011;52468;40.116;18.296;2023-04-06T02:22:24;8.40;;;5.43;;
51810;SDS011;52468;40.116;18.296;2023-04-06T02:24:52;6.97;;;4.67;;
51810;SDS011;52468;40.116;18.296;2023-04-06T02:27:20;6.47;;;4.00;;
51810;SDS011;52468;40.116;18.296;2023-04-06T02:29:48;9.03;;;4.23;;
51810;SDS011;52468;40.116;18.296;2023-04-06T02:32:19;6.30;;;4.80;;
51810;SDS011;52468;40.116;18.296;2023-04-06T02:34:48;5.93;;;4.40;;
51810;SDS011;52468;40.116;18.296;2023-04-06T02:37:18;6.93;;;4.47;;
51810;SDS011;52468;40.116;18.296;2023-04-06T02:39:46;5.47;;;3.50;;
51810;SDS011;52468;40.116;18.296;2023-04-06T02:42:14;6.17;;;3.77;;
51810;SDS011;52468;40.116;18.296;2023-04-06T02:44:44;7.97;;;4.10;;
51810;SDS011;52468;40.116;18.296;2023-04-06T02:47:12;6.83;;;3.57;;
51810;SDS011;52468;40.116;18.296;2023-04-06T02:49:45;8.32;;;4.93;;
51810;SDS011;52468;40.116;18.296;2023-04-06T02:52:15;6.87;;;4.47;;
51810;SDS011;52468;40.116;18.296;2023-04-06T02:54:45;8.53;;;5.43;;
51810;SDS011;52468;40.116;18.296;2023-04-06T02:57:15;11.90;;;4.40;;
51810;SDS011;52468;40.116;18.296;2023-04-06T02:59:45;10.37;;;4.93;;
51810;SDS011;52468;40.116;18.296;2023-04-06T03:02:24;9.60;;;4.73;;
51810;SDS011;52468;40.116;18.296;2023-04-06T03:04:58;6.80;;;4.20;;
51810;SDS011;52468;40.116;18.296;2023-04-06T03:07:33;7.20;;;4.80;;
51810;SDS011;52468;40.116;18.296;2023-04-06T03:10:01;7.97;;;4.10;;
51810;SDS011;52468;40.116;18.296;2023-04-06T03:12:31;8.33;;;5.57;;
51810;SDS011;52468;40.116;18.296;2023-04-06T03:15:08;10.00;;;4.33;;
51810;SDS011;52468;40.116;18.296;2023-04-06T03:17:39;6.93;;;4.53;;
51810;SDS011;52468;40.116;18.296;2023-04-06T03:20:14;7.10;;;4.83;;
51810;SDS011;52468;40.116;18.296;2023-04-06T03:22:42;7.20;;;5.73;;
51810;SDS011;52468;40.116;18.296;2023-04-06T03:25:15;8.10;;;4.45;;
51810;SDS011;52468;40.116;18.296;2023-04-06T03:27:44;7.60;;;4.67;;
51810;SDS011;52468;40.116;18.296;2023-04-06T03:30:16;7.40;;;4.67;;
51810;SDS011;52468;40.116;18.296;2023-04-06T03:32:44;6.63;;;4.70;;
51810;SDS011;52468;40.116;18.296;2023-04-06T03:35:12;7.27;;;4.87;;
51810;SDS011;52468;40.116;18.296;2023-04-06T03:37:40;6.83;;;4.97;;
51810;SDS011;52468;40.116;18.296;2023-04-06T03:40:08;8.07;;;5.30;;
51810;SDS011;52468;40.116;18.296;2023-04-06T03:42:36;8.73;;;5.40;;
51810;SDS011;52468;40.116;18.296;2023-04-06T03:45:10;10.90;;;5.28;;
51810;SDS011;52468;40.116;18.296;2023-04-06T03:47:45;8.13;;;5.40;;
51810;SDS011;52468;40.116;18.296;2023-04-06T03:50:13;8.40;;;4.50;;
51810;SDS011;52468;40.116;18.296;2023-04-06T03:52:41;8.53;;;5.13;;
51810;SDS011;52468;40.116;18.296;2023-04-06T03:55:09;10.50;;;5.80;;
51810;SDS011;52468;40.116;18.296;2023-04-06T03:57:37;8.73;;;5.77;;
51810;SDS011;52468;40.116;18.296;2023-04-06T04:00:05;7.47;;;5.17;;
51810;SDS011;52468;40.116;18.296;2023-04-06T04:02:40;10.50;;;6.27;;
51810;SDS011;52468;40.116;18.296;2023-04-06T04:05:08;10.63;;;5.90;;
51810;SDS011;52468;40.116;18.296;2023-04-06T04:07:36;8.03;;;4.93;;
51810;SDS011;52468;40.116;18.296;2023-04-06T04:10:06;9.13;;;5.93;;
51810;SDS011;52468;40.116;18.296;2023-04-06T04:12:34;8.60;;;5.57;;
51810;SDS011;52468;40.116;18.296;2023-04-06T04:15:02;10.17;;;7.13;;
51810;SDS011;52468;40.116;18.296;2023-04-06T04:17:30;10.70;;;6.13;;
51810;SDS011;52468;40.116;18.296;2023-04-06T04:19:59;9.70;;;5.63;;
51810;SDS011;52468;40.116;18.296;2023-04-06T04:22:27;10.40;;;7.23;;
51810;SDS011;52468;40.116;18.296;2023-04-06T04:24:55;9.20;;;6.30;;
51810;SDS011;52468;40.116;18.296;2023-04-06T04:27:23;9.93;;;6.40;;
51810;SDS011;52468;40.116;18.296;2023-04-06T04:29:52;8.50;;;5.53;;
51810;SDS011;52468;40.116;18.296;2023-04-06T04:32:20;10.10;;;6.47;;
51810;SDS011;52468;40.116;18.296;2023-04-06T04:34:49;10.47;;;6.57;;
51810;SDS011;52468;40.116;18.296;2023-04-06T04:37:30;13.00;;;6.80;;
51810;SDS011;52468;40.116;18.296;2023-04-06T04:39:58;7.87;;;6.03;;
51810;SDS011;52468;40.116;18.296;2023-04-06T04:42:29;9.83;;;6.43;;
51810;SDS011;52468;40.116;18.296;2023-04-06T04:44:59;8.97;;;6.53;;
51810;SDS011;52468;40.116;18.296;2023-04-06T04:47:38;10.27;;;6.17;;
51810;SDS011;52468;40.116;18.296;2023-04-06T04:50:07;8.70;;;6.30;;
51810;SDS011;52468;40.116;18.296;2023-04-06T04:52:39;10.00;;;6.20;;
51810;SDS011;52468;40.116;18.296;2023-04-06T04:55:14;10.07;;;6.33;;
51810;SDS011;52468;40.116;18.296;2023-04-06T04:57:45;9.37;;;6.07;;
51810;SDS011;52468;40.116;18.296;2023-04-06T05:00:15;11.87;;;6.70;;
51810;SDS011;52468;40.116;18.296;2023-04-06T05:02:44;9.50;;;6.63;;
51810;SDS011;52468;40.116;18.296;2023-04-06T05:05:19;12.07;;;6.67;;
51810;SDS011;52468;40.116;18.296;2023-04-06T05:07:49;13.17;;;8.20;;
51810;SDS011;52468;40.116;18.296;2023-04-06T05:10:27;12.67;;;7.73;;
51810;SDS011;52468;40.116;18.296;2023-04-06T05:12:59;13.73;;;7.70;;
51810;SDS011;52468;40.116;18.296;2023-04-06T05:15:27;11.83;;;7.07;;
51810;SDS011;52468;40.116;18.296;2023-04-06T05:18:01;11.87;;;8.43;;
51810;SDS011;52468;40.116;18.296;2023-04-06T05:20:33;10.77;;;6.47;;
51810;SDS011;52468;40.116;18.296;2023-04-06T05:23:02;9.47;;;6.03;;
51810;SDS011;52468;40.116;18.296;2023-04-06T05:25:30;9.83;;;5.77;;
51810;SDS011;52468;40.116;18.296;2023-04-06T05:28:09;10.53;;;7.07;;
51810;SDS011;52468;40.116;18.296;2023-04-06T05:30:38;9.37;;;6.63;;
51810;SDS011;52468;40.116;18.296;2023-04-06T05:33:09;13.33;;;7.07;;
51810;SDS011;52468;40.116;18.296;2023-04-06T05:35:54;11.80;;;7.83;;
51810;SDS011;52468;40.116;18.296;2023-04-06T05:38:22;10.73;;;7.87;;
51810;SDS011;52468;40.116;18.296;2023-04-06T05:40:53;10.43;;;7.80;;
51810;SDS011;52468;40.116;18.296;2023-04-06T05:43:24;11.57;;;7.33;;
51810;SDS011;52468;40.116;18.296;2023-04-06T05:45:55;9.93;;;7.73;;
51810;SDS011;52468;40.116;18.296;2023-04-06T05:48:23;15.37;;;7.83;;
51810;SDS011;52468;40.116;18.296;2023-04-06T05:50:51;10.73;;;7.43;;
51810;SDS011;52468;40.116;18.296;2023-04-06T05:53:24;12.68;;;8.13;;
51810;SDS011;52468;40.116;18.296;2023-04-06T05:55:56;12.67;;;8.63;;
51810;SDS011;52468;40.116;18.296;2023-04-06T05:58:25;13.20;;;7.53;;
51810;SDS011;52468;40.116;18.296;2023-04-06T06:00:58;13.67;;;6.87;;
51810;SDS011;52468;40.116;18.296;2023-04-06T06:03:35;11.93;;;7.13;;
51810;SDS011;52468;40.116;18.296;2023-04-06T06:06:03;10.83;;;7.43;;
51810;SDS011;52468;40.116;18.296;2023-04-06T06:09:01;13.60;;;8.43;;
51810;SDS011;52468;40.116;18.296;2023-04-06T06:11:34;11.85;;;7.28;;
51810;SDS011;52468;40.116;18.296;2023-04-06T06:14:03;13.80;;;7.67;;
51810;SDS011;52468;40.116;18.296;2023-04-06T06:16:34;12.60;;;8.40;;
51810;SDS011;52468;40.116;18.296;2023-04-06T06:19:02;11.23;;;7.40;;
51810;SDS011;52468;40.116;18.296;2023-04-06T06:21:31;13.70;;;8.83;;
51810;SDS011;52468;40.116;18.296;2023-04-06T06:24:00;11.03;;;6.67;;
51810;SDS011;52468;40.116;18.296;2023-04-06T06:26:28;12.80;;;7.50;;
51810;SDS011;52468;40.116;18.296;2023-04-06T06:28:57;10.63;;;6.93;;
51810;SDS011;52468;40.116;18.296;2023-04-06T06:31:25;12.43;;;7.67;;
51810;SDS011;52468;40.116;18.296;2023-04-06T06:33:54;10.70;;;7.07;;
51810;SDS011;52468;40.116;18.296;2023-04-06T06:36:22;10.87;;;7.03;;
51810;SDS011;52468;40.116;18.296;2023-04-06T06:38:50;14.73;;;8.57;;
51810;SDS011;52468;40.116;18.296;2023-04-06T06:41:20;13.43;;;8.47;;
51810;SDS011;52468;40.116;18.296;2023-04-06T06:43:49;9.90;;;6.80;;
51810;SDS011;52468;40.116;18.296;2023-04-06T06:46:17;9.83;;;6.37;;
51810;SDS011;52468;40.116;18.296;2023-04-06T06:48:45;13.60;;;8.50;;
51810;SDS011;52468;40.116;18.296;2023-04-06T06:51:13;11.23;;;7.60;;
51810;SDS011;52468;40.116;18.296;2023-04-06T06:53:41;9.93;;;6.87;;
51810;SDS011;52468;40.116;18.296;2023-04-06T06:56:10;11.67;;;7.17;;
51810;SDS011;52468;40.116;18.296;2023-04-06T06:58:38;10.47;;;8.20;;
51810;SDS011;52468;40.116;18.296;2023-04-06T07:01:06;12.60;;;7.07;;
51810;SDS011;52468;40.116;18.296;2023-04-06T07:03:34;8.60;;;6.13;;
51810;SDS011;52468;40.116;18.296;2023-04-06T07:06:02;9.13;;;6.97;;
51810;SDS011;52468;40.116;18.296;2023-04-06T07:08:30;9.30;;;7.33;;
51810;SDS011;52468;40.116;18.296;2023-04-06T07:10:59;8.63;;;6.10;;
51810;SDS011;52468;40.116;18.296;2023-04-06T07:13:27;9.53;;;6.03;;
51810;SDS011;52468;40.116;18.296;2023-04-06T07:15:57;9.10;;;5.77;;
51810;SDS011;52468;40.116;18.296;2023-04-06T07:18:25;10.43;;;5.73;;
51810;SDS011;52468;40.116;18.296;2023-04-06T07:20:53;7.53;;;4.93;;
51810;SDS011;52468;40.116;18.296;2023-04-06T07:23:21;9.33;;;5.67;;
51810;SDS011;52468;40.116;18.296;2023-04-06T07:25:48;9.80;;;4.70;;
51810;SDS011;52468;40.116;18.296;2023-04-06T07:28:19;9.67;;;5.27;;
51810;SDS011;52468;40.116;18.296;2023-04-06T07:30:47;6.07;;;4.90;;
51810;SDS011;52468;40.116;18.296;2023-04-06T07:33:15;7.43;;;5.07;;
51810;SDS011;52468;40.116;18.296;2023-04-06T07:35:43;6.87;;;4.57;;
51810;SDS011;52468;40.116;18.296;2023-04-06T07:38:13;5.70;;;4.50;;
51810;SDS011;52468;40.116;18.296;2023-04-06T07:40:41;6.23;;;4.93;;
51810;SDS011;52468;40.116;18.296;2023-04-06T07:43:09;6.67;;;4.70;;
51810;SDS011;52468;40.116;18.296;2023-04-06T07:45:37;7.37;;;4.70;;
51810;SDS011;52468;40.116;18.296;2023-04-06T07:48:05;6.00;;;4.77;;
51810;SDS011;52468;40.116;18.296;2023-04-06T07:50:34;5.70;;;4.73;;
51810;SDS011;52468;40.116;18.296;2023-04-06T07:53:03;7.33;;;4.90;;
51810;SDS011;52468;40.116;18.296;2023-04-06T07:55:32;7.73;;;4.77;;
51810;SDS011;52468;40.116;18.296;2023-04-06T07:58:00;9.50;;;5.27;;
51810;SDS011;52468;40.116;18.296;2023-04-06T08:00:28;4.90;;;3.50;;
51810;SDS011;52468;40.116;18.296;2023-04-06T08:02:57;5.73;;;3.93;;
51810;SDS011;52468;40.116;18.296;2023-04-06T08:05:24;5.07;;;4.07;;
51810;SDS011;52468;40.116;18.296;2023-04-06T08:07:53;6.90;;;4.37;;
51810;SDS011;52468;40.116;18.296;2023-04-06T08:10:20;6.00;;;4.13;;
51810;SDS011;52468;40.116;18.296;2023-04-06T08:12:48;5.33;;;3.87;;
51810;SDS011;52468;40.116;18.296;2023-04-06T08:15:16;8.07;;;4.83;;
51810;SDS011;52468;40.116;18.296;2023-04-06T08:17:45;7.43;;;4.40;;
51810;SDS011;52468;40.116;18.296;2023-04-06T08:20:13;8.00;;;4.73;;
51810;SDS011;52468;40.116;18.296;2023-04-06T08:22:41;7.37;;;5.03;;
51810;SDS011;52468;40.116;18.296;2023-04-06T08:25:09;8.40;;;6.07;;
51810;SDS011;52468;40.116;18.296;2023-04-06T08:27:37;4.83;;;4.33;;
51810;SDS011;52468;40.116;18.296;2023-04-06T08:30:05;7.33;;;4.60;;
51810;SDS011;52468;40.116;18.296;2023-04-06T08:32:33;9.63;;;4.70;;
51810;SDS011;52468;40.116;18.296;2023-04-06T08:35:01;6.13;;;4.73;;
51810;SDS011;52468;40.116;18.296;2023-04-06T08:37:29;5.73;;;4.73;;
51810;SDS011;52468;40.116;18.296;2023-04-06T08:39:57;5.77;;;4.40;;
51810;SDS011;52468;40.116;18.296;2023-04-06T08:42:25;8.33;;;3.70;;
51810;SDS011;52468;40.116;18.296;2023-04-06T08:44:55;6.13;;;4.67;;
51810;SDS011;52468;40.116;18.296;2023-04-06T08:47:23;6.63;;;4.70;;
51810;SDS011;52468;40.116;18.296;2023-04-06T08:49:52;6.60;;;4.63;;
51810;SDS011;52468;40.116;18.296;2023-04-06T08:52:21;6.87;;;4.70;;
51810;SDS011;52468;40.116;18.296;2023-04-06T08:54:50;6.17;;;4.13;;
51810;SDS011;52468;40.116;18.296;2023-04-06T08:57:18;8.13;;;5.10;;
51810;SDS011;52468;40.116;18.296;2023-04-06T08:59:46;4.40;;;4.00;;
51810;SDS011;52468;40.116;18.296;2023-04-06T09:02:16;5.37;;;4.30;;
51810;SDS011;52468;40.116;18.296;2023-04-06T09:04:46;5.40;;;4.00;;
51810;SDS011;52468;40.116;18.296;2023-04-06T09:07:16;4.90;;;3.90;;
51810;SDS011;52468;40.116;18.296;2023-04-06T09:09:44;7.80;;;5.43;;
51810;SDS011;52468;40.116;18.296;2023-04-06T09:12:25;4.93;;;3.93;;
51810;SDS011;52468;40.116;18.296;2023-04-06T09:14:57;6.53;;;4.63;;
51810;SDS011;52468;40.116;18.296;2023-04-06T09:17:26;6.37;;;4.40;;
51810;SDS011;52468;40.116;18.296;2023-04-06T09:19:56;6.50;;;4.27;;
51810;SDS011;52468;40.116;18.296;2023-04-06T09:22:24;5.17;;;4.00;;
51810;SDS011;52468;40.116;18.296;2023-04-06T09:24:54;6.80;;;4.73;;
51810;SDS011;52468;40.116;18.296;2023-04-06T09:27:31;5.27;;;3.60;;
51810;SDS011;52468;40.116;18.296;2023-04-06T09:30:04;6.67;;;4.83;;
51810;SDS011;52468;40.116;18.296;2023-04-06T09:32:43;9.63;;;4.35;;
51810;SDS011;52468;40.116;18.296;2023-04-06T09:35:19;5.97;;;3.20;;
51810;SDS011;52468;40.116;18.296;2023-04-06T09:37:49;6.10;;;3.87;;
51810;SDS011;52468;40.116;18.296;2023-04-06T09:40:19;4.50;;;4.10;;
51810;SDS011;52468;40.116;18.296;2023-04-06T09:42:48;4.67;;;2.97;;
51810;SDS011;52468;40.116;18.296;2023-04-06T09:45:19;4.90;;;4.17;;
51810;SDS011;52468;40.116;18.296;2023-04-06T09:47:48;5.17;;;3.90;;
51810;SDS011;52468;40.116;18.296;2023-04-06T09:50:19;9.43;;;5.90;;
51810;SDS011;52468;40.116;18.296;2023-04-06T09:52:48;14.00;;;9.43;;
51810;SDS011;52468;40.116;18.296;2023-04-06T09:55:30;13.83;;;8.20;;
51810;SDS011;52468;40.116;18.296;2023-04-06T09:58:05;5.30;;;4.33;;
51810;SDS011;52468;40.116;18.296;2023-04-06T10:00:40;6.35;;;4.47;;
51810;SDS011;52468;40.116;18.296;2023-04-06T10:06:07;6.63;;;3.47;;
51810;SDS011;52468;40.116;18.296;2023-04-06T10:08:40;4.20;;;3.27;;
51810;SDS011;52468;40.116;18.296;2023-04-06T10:11:09;6.67;;;4.87;;
51810;SDS011;52468;40.116;18.296;2023-04-06T10:13:40;6.00;;;3.97;;
51810;SDS011;52468;40.116;18.296;2023-04-06T10:16:09;6.37;;;4.60;;
51810;SDS011;52468;40.116;18.296;2023-04-06T10:18:37;5.20;;;4.23;;
51810;SDS011;52468;40.116;18.296;2023-04-06T10:21:08;6.10;;;4.50;;
51810;SDS011;52468;40.116;18.296;2023-04-06T10:23:45;7.30;;;5.30;;
51810;SDS011;52468;40.116;18.296;2023-04-06T10:26:24;6.90;;;4.70;;
51810;SDS011;52468;40.116;18.296;2023-04-06T10:28:53;5.00;;;3.80;;
51810;SDS011;52468;40.116;18.296;2023-04-06T10:31:25;4.33;;;3.93;;
51810;SDS011;52468;40.116;18.296;2023-04-06T10:33:55;6.10;;;4.73;;
51810;SDS011;52468;40.116;18.296;2023-04-06T10:36:27;5.87;;;4.70;;
51810;SDS011;52468;40.116;18.296;2023-04-06T10:39:00;6.63;;;4.80;;
51810;SDS011;52468;40.116;18.296;2023-04-06T10:41:32;5.27;;;4.63;;
51810;SDS011;52468;40.116;18.296;2023-04-06T10:44:21;6.87;;;4.53;;
51810;SDS011;52468;40.116;18.296;2023-04-06T10:46:55;6.83;;;4.77;;
51810;SDS011;52468;40.116;18.296;2023-04-06T10:49:24;8.87;;;4.60;;
51810;SDS011;52468;40.116;18.296;2023-04-06T10:51:53;9.07;;;5.03;;
51810;SDS011;52468;40.116;18.296;2023-04-06T10:54:23;6.47;;;4.33;;
51810;SDS011;52468;40.116;18.296;2023-04-06T10:56:52;7.00;;;5.17;;
51810;SDS011;52468;40.116;18.296;2023-04-06T10:59:20;7.07;;;4.90;;
51810;SDS011;52468;40.116;18.296;2023-04-06T11:01:49;6.60;;;4.67;;
51810;SDS011;52468;40.116;18.296;2023-04-06T11:04:18;7.07;;;4.63;;
51810;SDS011;52468;40.116;18.296;2023-04-06T11:06:47;9.37;;;5.10;;
51810;SDS011;52468;40.116;18.296;2023-04-06T11:09:22;9.83;;;6.70;;
51810;SDS011;52468;40.116;18.296;2023-04-06T11:11:54;7.00;;;5.57;;
51810;SDS011;52468;40.116;18.296;2023-04-06T11:14:24;8.87;;;5.50;;
51810;SDS011;52468;40.116;18.296;2023-04-06T11:16:53;5.30;;;4.70;;
51810;SDS011;52468;40.116;18.296;2023-04-06T11:19:21;6.87;;;6.17;;
51810;SDS011;52468;40.116;18.296;2023-04-06T11:21:49;12.53;;;6.53;;
51810;SDS011;52468;40.116;18.296;2023-04-06T11:26:56;7.13;;;5.73;;
51810;SDS011;52468;40.116;18.296;2023-04-06T11:29:26;6.67;;;5.33;;
51810;SDS011;52468;40.116;18.296;2023-04-06T11:31:59;7.87;;;6.87;;
51810;SDS011;52468;40.116;18.296;2023-04-06T11:34:29;5.50;;;4.78;;
51810;SDS011;52468;40.116;18.296;2023-04-06T11:37:01;8.27;;;5.63;;
51810;SDS011;52468;40.116;18.296;2023-04-06T11:39:37;9.40;;;6.43;;
51810;SDS011;52468;40.116;18.296;2023-04-06T11:44:39;6.23;;;5.23;;
51810;SDS011;52468;40.116;18.296;2023-04-06T11:49:37;7.27;;;5.40;;
51810;SDS011;52468;40.116;18.296;2023-04-06T11:54:48;5.67;;;5.00;;
51810;SDS011;52468;40.116;18.296;2023-04-06T11:57:17;6.70;;;5.60;;
51810;SDS011;52468;40.116;18.296;2023-04-06T11:59:46;12.27;;;7.13;;
51810;SDS011;52468;40.116;18.296;2023-04-06T12:02:14;7.97;;;5.10;;
51810;SDS011;52468;40.116;18.296;2023-04-06T12:04:43;9.53;;;5.63;;
51810;SDS011;52468;40.116;18.296;2023-04-06T12:07:11;5.80;;;4.50;;
51810;SDS011;52468;40.116;18.296;2023-04-06T12:09:39;9.83;;;5.80;;
51810;SDS011;52468;40.116;18.296;2023-04-06T12:12:07;5.77;;;4.60;;
51810;SDS011;52468;40.116;18.296;2023-04-06T12:14:35;7.30;;;5.80;;
51810;SDS011;52468;40.116;18.296;2023-04-06T12:17:02;7.03;;;5.07;;
51810;SDS011;52468;40.116;18.296;2023-04-06T12:19:30;5.40;;;4.80;;
51810;SDS011;52468;40.116;18.296;2023-04-06T12:21:58;7.17;;;4.47;;
51810;SDS011;52468;40.116;18.296;2023-04-06T12:24:27;9.27;;;6.10;;
51810;SDS011;52468;40.116;18.296;2023-04-06T12:26:55;9.07;;;5.83;;
51810;SDS011;52468;40.116;18.296;2023-04-06T12:29:29;5.50;;;4.97;;
51810;SDS011;52468;40.116;18.296;2023-04-06T12:31:57;6.17;;;5.03;;
51810;SDS011;52468;40.116;18.296;2023-04-06T12:34:25;4.80;;;4.07;;
51810;SDS011;52468;40.116;18.296;2023-04-06T12:36:53;5.50;;;5.00;;
51810;SDS011;52468;40.116;18.296;2023-04-06T12:39:21;5.53;;;4.40;;
51810;SDS011;52468;40.116;18.296;2023-04-06T12:41:49;6.87;;;4.50;;
51810;SDS011;52468;40.116;18.296;2023-04-06T12:44:17;5.97;;;4.10;;
51810;SDS011;52468;40.116;18.296;2023-04-06T12:46:45;6.33;;;4.13;;
51810;SDS011;52468;40.116;18.296;2023-04-06T12:49:13;6.87;;;4.60;;
51810;SDS011;52468;40.116;18.296;2023-04-06T12:51:43;5.93;;;4.87;;
51810;SDS011;52468;40.116;18.296;2023-04-06T12:54:12;5.70;;;4.63;;
51810;SDS011;52468;40.116;18.296;2023-04-06T12:56:40;7.30;;;4.47;;
51810;SDS011;52468;40.116;18.296;2023-04-06T12:59:08;4.63;;;4.17;;
51810;SDS011;52468;40.116;18.296;2023-04-06T13:01:36;5.43;;;4.93;;
51810;SDS011;52468;40.116;18.296;2023-04-06T13:04:04;5.27;;;3.90;;
51810;SDS011;52468;40.116;18.296;2023-04-06T13:06:32;6.53;;;4.67;;
51810;SDS011;52468;40.116;18.296;2023-04-06T13:09:00;5.27;;;3.50;;
51810;SDS011;52468;40.116;18.296;2023-04-06T13:11:29;5.63;;;4.33;;
51810;SDS011;52468;40.116;18.296;2023-04-06T13:13:57;3.90;;;3.50;;
51810;SDS011;52468;40.116;18.296;2023-04-06T13:16:25;6.20;;;3.07;;
51810;SDS011;52468;40.116;18.296;2023-04-06T13:18:53;4.23;;;2.57;;
51810;SDS011;52468;40.116;18.296;2023-04-06T13:21:21;3.73;;;2.60;;
51810;SDS011;52468;40.116;18.296;2023-04-06T13:23:49;12.50;;;3.93;;
51810;SDS011;52468;40.116;18.296;2023-04-06T13:26:17;6.17;;;3.03;;
51810;SDS011;52468;40.116;18.296;2023-04-06T13:28:45;3.37;;;2.67;;
51810;SDS011;52468;40.116;18.296;2023-04-06T13:31:13;3.60;;;2.90;;
51810;SDS011;52468;40.116;18.296;2023-04-06T13:33:41;3.80;;;2.00;;
51810;SDS011;52468;40.116;18.296;2023-04-06T13:36:08;3.87;;;2.67;;
51810;SDS011;52468;40.116;18.296;2023-04-06T13:38:36;3.00;;;2.33;;
51810;SDS011;52468;40.116;18.296;2023-04-06T13:41:06;3.00;;;2.37;;
51810;SDS011;52468;40.116;18.296;2023-04-06T13:43:34;7.23;;;3.03;;
51810;SDS011;52468;40.116;18.296;2023-04-06T13:46:01;4.17;;;2.30;;
51810;SDS011;52468;40.116;18.296;2023-04-06T13:48:29;4.93;;;2.60;;
51810;SDS011;52468;40.116;18.296;2023-04-06T13:50:57;4.63;;;3.47;;
51810;SDS011;52468;40.116;18.296;2023-04-06T13:53:34;5.10;;;2.77;;
51810;SDS011;52468;40.116;18.296;2023-04-06T13:56:02;6.50;;;3.27;;
51810;SDS011;52468;40.116;18.296;2023-04-06T13:58:30;5.67;;;4.30;;
51810;SDS011;52468;40.116;18.296;2023-04-06T14:01:07;3.73;;;3.33;;
51810;SDS011;52468;40.116;18.296;2023-04-06T14:03:37;5.77;;;3.77;;
51810;SDS011;52468;40.116;18.296;2023-04-06T14:06:10;8.47;;;4.73;;
51810;SDS011;52468;40.116;18.296;2023-04-06T14:08:42;6.73;;;3.70;;
51810;SDS011;52468;40.116;18.296;2023-04-06T14:11:12;3.80;;;3.07;;
51810;SDS011;52468;40.116;18.296;2023-04-06T14:13:41;6.93;;;4.73;;
51810;SDS011;52468;40.116;18.296;2023-04-06T14:16:09;6.17;;;3.20;;
51810;SDS011;52468;40.116;18.296;2023-04-06T14:18:38;6.23;;;3.77;;
51810;SDS011;52468;40.116;18.296;2023-04-06T14:21:05;6.67;;;3.70;;
51810;SDS011;52468;40.116;18.296;2023-04-06T14:23:34;5.10;;;3.40;;
51810;SDS011;52468;40.116;18.296;2023-04-06T14:26:05;7.03;;;4.03;;
51810;SDS011;52468;40.116;18.296;2023-04-06T14:28:35;5.00;;;3.47;;
51810;SDS011;52468;40.116;18.296;2023-04-06T14:31:09;3.50;;;2.53;;
51810;SDS011;52468;40.116;18.296;2023-04-06T14:33:40;6.27;;;3.23;;
51810;SDS011;52468;40.116;18.296;2023-04-06T14:36:09;3.77;;;2.60;;
51810;SDS011;52468;40.116;18.296;2023-04-06T14:38:38;8.47;;;3.33;;
51810;SDS011;52468;40.116;18.296;2023-04-06T14:41:07;6.07;;;3.90;;
51810;SDS011;52468;40.116;18.296;2023-04-06T14:43:37;5.47;;;3.10;;
51810;SDS011;52468;40.116;18.296;2023-04-06T14:46:05;5.57;;;3.70;;
51810;SDS011;52468;40.116;18.296;2023-04-06T14:48:35;4.70;;;3.40;;
51810;SDS011;52468;40.116;18.296;2023-04-06T14:51:03;5.27;;;3.63;;
51810;SDS011;52468;40.116;18.296;2023-04-06T14:53:31;7.37;;;4.30;;
51810;SDS011;52468;40.116;18.296;2023-04-06T14:55:59;5.20;;;4.60;;
51810;SDS011;52468;40.116;18.296;2023-04-06T14:58:27;5.13;;;4.63;;
51810;SDS011;52468;40.116;18.296;2023-04-06T15:00:58;7.27;;;4.67;;
51810;SDS011;52468;40.116;18.296;2023-04-06T15:03:28;6.87;;;4.90;;
51810;SDS011;52468;40.116;18.296;2023-04-06T15:05:56;8.00;;;4.27;;